Time;durP1;ratioP1;P1;durP2;ratioP2;P2;SDS_P1;SDS_P2;PMS_P1;PMS_P2;Temp;Humidity;BMP_temperature;BMP_pressure;BME280_temperature;BME280_humidity;BME280_pressure;Samples;Min_cycle;Max_cycle;Signal;HPM_P1;HPM_P2
2023/06/22 00:01:24;;;;;;;24.80;23.20;;;22.80;1.00;;;;;;4957536;28;20460;-86
2023/06/22 00:03:54;;;;;;;23.90;22.57;;;22.70;1.00;;;;;;4959777;28;20470;-86
2023/06/22 00:06:22;;;;;;;23.37;22.17;;;22.80;1.00;;;;;;4957361;28;20500;-87
2023/06/22 00:08:50;;;;;;;24.27;22.93;;;22.80;1.00;;;;;;4956885;28;20967;-86
2023/06/22 00:11:20;;;;;;;23.93;22.73;;;22.80;1.00;;;;;;4960985;28;20459;-86
2023/06/22 00:13:49;;;;;;;24.90;23.47;;;22.80;1.00;;;;;;4960633;28;21008;-86
2023/06/22 00:16:17;;;;;;;24.57;22.90;;;22.80;1.00;;;;;;4958112;28;20463;-85
2023/06/22 00:18:46;;;;;;;23.90;22.60;;;22.70;1.00;;;;;;4957906;28;20475;-85
2023/06/22 00:21:16;;;;;;;23.27;21.97;;;22.70;1.00;;;;;;4952696;28;20487;-85
2023/06/22 00:23:45;;;;;;;24.50;22.90;;;22.70;1.00;;;;;;4959767;28;21033;-86
2023/06/22 00:26:13;;;;;;;24.20;22.93;;;22.70;1.00;;;;;;4964837;28;20547;-84
2023/06/22 00:28:41;;;;;;;24.67;23.10;;;22.70;1.00;;;;;;4963814;28;20545;-85
2023/06/22 00:31:09;;;;;;;23.70;22.43;;;22.60;51.50;;;;;;4961110;28;20991;-83
2023/06/22 00:33:38;;;;;;;25.17;23.87;;;22.60;64.10;;;;;;4962566;28;20474;-84
2023/06/22 00:36:07;;;;;;;24.10;22.70;;;22.60;99.90;;;;;;4961897;28;20467;-85
2023/06/22 00:38:39;;;;;;;23.97;22.57;;;22.60;99.90;;;;;;4962059;28;20546;-84
2023/06/22 00:41:08;;;;;;;23.23;21.87;;;22.60;99.90;;;;;;4964436;28;20475;-82
2023/06/22 00:43:36;;;;;;;24.20;22.80;;;22.70;99.90;;;;;;4964163;28;20483;-84
2023/06/22 00:46:04;;;;;;;24.33;22.90;;;22.60;99.90;;;;;;4962847;28;20546;-84
2023/06/22 00:48:33;;;;;;;22.57;21.47;;;22.70;99.90;;;;;;4963864;28;21028;-85
2023/06/22 00:51:01;;;;;;;24.33;22.93;;;22.70;99.90;;;;;;4963909;28;20535;-84
2023/06/22 00:53:30;;;;;;;23.17;21.97;;;22.70;72.20;;;;;;4961964;28;20529;-84
2023/06/22 00:55:59;;;;;;;23.97;22.57;;;22.60;99.90;;;;;;4955497;28;20473;-86
2023/06/22 00:58:28;;;;;;;25.50;23.87;;;22.70;99.90;;;;;;4960545;28;20451;-85
2023/06/22 01:00:56;;;;;;;24.13;22.73;;;22.70;99.90;;;;;;4959920;28;20484;-84
2023/06/22 01:03:24;;;;;;;23.53;22.33;;;22.70;68.10;;;;;;4952591;28;20559;-86
2023/06/22 01:05:57;;;;;;;24.80;23.27;;;22.60;99.90;;;;;;4960374;28;20473;-84
2023/06/22 01:08:32;;;;;;;24.23;22.83;;;22.60;99.90;;;;;;4959858;28;20470;-85
2023/06/22 01:11:06;;;;;;;24.43;22.80;;;22.60;99.90;;;;;;4960594;28;20454;-84
2023/06/22 01:13:42;;;;;;;23.93;22.47;;;22.60;99.90;;;;;;4960801;28;20482;-86
2023/06/22 01:16:16;;;;;;;23.57;22.13;;;22.60;99.90;;;;;;4961581;28;20469;-84
2023/06/22 01:18:45;;;;;;;24.70;23.30;;;22.50;99.90;;;;;;4959019;28;20466;-86
2023/06/22 01:21:18;;;;;;;24.40;22.90;;;22.30;1.00;;;;;;4959939;28;21043;-85
2023/06/22 01:23:58;;;;;;;23.73;22.33;;;22.40;1.00;;;;;;4958086;28;20474;-85
2023/06/22 01:26:38;;;;;;;24.90;23.50;;;22.40;1.00;;;;;;4963155;28;20493;-86
2023/06/22 01:29:11;;;;;;;24.13;22.73;;;22.30;99.90;;;;;;4954074;28;20479;-85
2023/06/22 01:31:41;;;;;;;24.80;23.00;;;22.30;1.00;;;;;;4958966;28;20459;-86
2023/06/22 01:34:12;;;;;;;23.73;22.53;;;22.30;1.00;;;;;;4964121;28;20567;-85
2023/06/22 01:36:41;;;;;;;24.20;22.90;;;22.30;1.00;;;;;;4961342;28;20452;-85
2023/06/22 01:39:09;;;;;;;25.37;23.73;;;22.30;1.00;;;;;;4962603;28;20447;-84
2023/06/22 01:41:39;;;;;;;24.37;22.97;;;22.30;1.00;;;;;;4961425;28;20932;-85
2023/06/22 01:44:10;;;;;;;24.10;22.60;;;22.40;1.00;;;;;;4958928;28;20479;-84
2023/06/22 01:46:39;;;;;;;23.70;22.30;;;22.30;1.00;;;;;;4958799;28;20455;-85
2023/06/22 01:49:08;;;;;;;24.33;23.03;;;22.20;1.00;;;;;;4963161;28;20447;-83
2023/06/22 01:51:36;;;;;;;25.20;23.63;;;22.20;1.00;;;;;;4961041;28;20528;-84
2023/06/22 01:54:07;;;;;;;24.70;22.90;;;22.30;1.00;;;;;;4963770;28;20558;-83
2023/06/22 01:56:35;;;;;;;24.00;22.50;;;22.20;1.00;;;;;;4961966;28;20463;-82
2023/06/22 01:59:08;;;;;;;25.40;23.93;;;22.20;1.00;;;;;;4961658;28;20470;-85
2023/06/22 02:01:46;;;;;;;24.63;23.10;;;22.10;1.00;;;;;;4959875;28;21164;-85
2023/06/22 02:04:21;;;;;;;24.70;23.13;;;22.10;1.00;;;;;;4960578;28;21031;-85
2023/06/22 02:06:55;;;;;;;24.33;22.90;;;22.20;99.90;;;;;;4960903;28;20582;-85
2023/06/22 02:09:25;;;;;;;24.07;22.57;;;22.30;99.90;;;;;;4960788;28;20525;-83
2023/06/22 02:11:56;;;;;;;25.30;23.87;;;22.30;99.90;;;;;;4960989;28;20460;-86
2023/06/22 02:14:26;;;;;;;23.93;22.53;;;22.20;99.90;;;;;;4961279;28;20588;-86
2023/06/22 02:16:58;;;;;;;23.83;22.43;;;22.20;99.90;;;;;;4959337;28;20494;-83
2023/06/22 02:19:30;;;;;;;26.07;24.57;;;22.20;1.00;;;;;;4963467;28;20460;-85
2023/06/22 02:21:58;;;;;;;24.77;23.40;;;22.10;1.00;;;;;;4965883;28;20888;-84
2023/06/22 02:24:27;;;;;;;24.00;22.77;;;22.10;1.00;;;;;;4965953;28;20487;-85
2023/06/22 02:26:55;;;;;;;24.37;23.07;;;22.10;1.00;;;;;;4964443;28;20457;-84
2023/06/22 02:29:23;;;;;;;23.40;22.00;;;22.00;1.00;;;;;;4963953;28;20672;-83
2023/06/22 02:31:51;;;;;;;24.17;22.67;;;22.00;1.00;;;;;;4960246;28;20447;-83
2023/06/22 02:34:21;;;;;;;24.00;22.67;;;21.90;24.50;;;;;;4962462;28;20471;-83
2023/06/22 02:36:51;;;;;;;24.63;23.30;;;22.00;99.90;;;;;;4961594;28;20490;-84
2023/06/22 02:39:24;;;;;;;25.33;23.93;;;21.90;50.30;;;;;;4962893;28;20447;-84
2023/06/22 02:41:54;;;;;;;24.27;22.80;;;21.90;1.00;;;;;;4960617;28;20487;-85
2023/06/22 02:44:22;;;;;;;25.37;23.87;;;21.80;99.90;;;;;;4963395;28;20478;-84
2023/06/22 02:46:51;;;;;;;24.43;23.13;;;21.80;24.40;;;;;;4962362;28;20463;-83
2023/06/22 02:49:19;;;;;;;24.53;22.93;;;21.80;4.90;;;;;;4960535;28;20466;-82
2023/06/22 02:51:49;;;;;;;23.23;21.90;;;21.90;1.00;;;;;;4961214;28;20455;-85
2023/06/22 02:54:17;;;;;;;23.70;22.17;;;21.90;1.00;;;;;;4961880;28;20821;-87
2023/06/22 02:56:46;;;;;;;23.63;22.13;;;21.90;1.00;;;;;;4959956;28;20470;-86
2023/06/22 02:59:14;;;;;;;23.00;21.63;;;22.00;1.00;;;;;;4959445;28;20459;-84
2023/06/22 03:01:42;;;;;;;22.73;21.47;;;21.90;1.00;;;;;;4957071;28;20487;-85
2023/06/22 03:04:11;;;;;;;22.60;21.50;;;22.00;1.00;;;;;;4957462;28;20479;-86
2023/06/22 03:06:40;;;;;;;22.70;21.50;;;22.00;1.00;;;;;;4973498;28;20561;-84
2023/06/22 03:09:10;;;;;;;22.57;21.37;;;22.00;99.90;;;;;;4959426;28;20431;-84
2023/06/22 03:11:38;;;;;;;23.57;22.23;;;22.00;1.00;;;;;;4958362;28;20460;-84
2023/06/22 03:14:07;;;;;;;22.87;21.67;;;22.00;99.90;;;;;;4958087;28;20963;-85
2023/06/22 03:16:35;;;;;;;23.37;21.90;;;21.90;99.90;;;;;;4961508;28;20475;-85
2023/06/22 03:19:03;;;;;;;23.00;21.87;;;21.90;99.90;;;;;;4960255;28;20468;-82
2023/06/22 03:21:31;;;;;;;24.20;22.70;;;21.90;1.00;;;;;;4963091;28;20566;-85
2023/06/22 03:24:00;;;;;;;23.97;22.10;;;21.90;1.00;;;;;;4962973;28;20574;-82
2023/06/22 03:26:29;;;;;;;24.37;22.67;;;21.90;1.00;;;;;;4960532;28;20454;-83
2023/06/22 03:28:58;;;;;;;23.60;22.33;;;21.80;1.00;;;;;;4962643;28;20481;-82
2023/06/22 03:31:26;;;;;;;23.20;22.00;;;21.80;1.00;;;;;;4959538;28;20459;-82
2023/06/22 03:33:54;;;;;;;23.50;22.20;;;21.70;1.00;;;;;;4959262;28;20523;-84
2023/06/22 03:36:23;;;;;;;23.30;22.00;;;21.70;63.00;;;;;;4959670;28;20765;-85
2023/06/22 03:38:51;;;;;;;23.83;22.47;;;21.70;1.00;;;;;;4957617;28;20468;-85
2023/06/22 03:41:19;;;;;;;23.97;22.40;;;21.60;25.40;;;;;;4956374;28;20833;-84
2023/06/22 03:43:49;;;;;;;24.03;22.53;;;21.60;14.30;;;;;;4956667;28;21167;-85
2023/06/22 03:46:17;;;;;;;23.53;22.43;;;21.60;99.90;;;;;;4956763;28;20985;-85
2023/06/22 03:48:45;;;;;;;24.87;23.30;;;21.60;99.90;;;;;;4952138;28;20666;-84
2023/06/22 03:51:14;;;;;;;24.50;23.10;;;21.50;99.90;;;;;;4956510;28;20479;-84
2023/06/22 03:53:42;;;;;;;23.77;22.50;;;21.50;1.00;;;;;;4959361;28;20586;-85
2023/06/22 03:56:10;;;;;;;24.73;23.33;;;21.50;99.90;;;;;;4956966;28;20484;-85
2023/06/22 03:58:42;;;;;;;25.23;23.60;;;21.60;99.90;;;;;;4955332;28;20454;-83
2023/06/22 04:01:12;;;;;;;24.60;23.10;;;21.60;99.90;;;;;;4956387;28;20461;-84
2023/06/22 04:03:42;;;;;;;24.70;23.23;;;21.50;99.90;;;;;;4959204;28;20477;-85
2023/06/22 04:06:10;;;;;;;25.20;23.80;;;21.50;1.00;;;;;;4960739;28;20491;-86
2023/06/22 04:08:38;;;;;;;24.67;23.37;;;21.60;99.90;;;;;;4964043;28;20554;-84
2023/06/22 04:11:06;;;;;;;24.47;23.17;;;21.60;99.90;;;;;;4962738;28;20498;-84
2023/06/22 04:13:34;;;;;;;25.67;24.17;;;21.60;99.90;;;;;;4961214;28;20598;-83
2023/06/22 04:16:03;;;;;;;24.97;23.37;;;21.60;99.90;;;;;;4960872;28;20495;-85
2023/06/22 04:18:32;;;;;;;23.73;22.40;;;21.60;99.90;;;;;;4963518;28;20458;-83
2023/06/22 04:21:00;;;;;;;24.83;23.33;;;21.60;99.90;;;;;;4960691;28;20479;-82
2023/06/22 04:23:28;;;;;;;25.40;23.97;;;21.60;99.90;;;;;;4960220;28;20494;-85
2023/06/22 04:25:57;;;;;;;25.23;23.73;;;21.60;99.90;;;;;;4962101;28;20499;-84
2023/06/22 04:28:26;;;;;;;24.77;23.37;;;21.60;99.90;;;;;;4961844;28;20582;-84
2023/06/22 04:31:02;;;;;;;25.40;24.00;;;21.60;1.00;;;;;;4961540;28;20479;-82
2023/06/22 04:33:32;;;;;;;24.43;23.03;;;21.70;99.90;;;;;;4958862;28;21036;-85
2023/06/22 04:36:01;;;;;;;23.80;22.53;;;21.70;99.90;;;;;;4957800;28;21004;-82
2023/06/22 04:38:33;;;;;;;23.90;22.60;;;21.70;1.00;;;;;;4959338;28;20498;-81
2023/06/22 04:41:03;;;;;;;24.17;22.87;;;21.80;99.90;;;;;;4956995;28;20464;-84
2023/06/22 04:43:31;;;;;;;24.70;23.20;;;21.80;99.90;;;;;;4963733;28;20483;-81
2023/06/22 04:46:03;;;;;;;24.43;23.03;;;21.80;99.90;;;;;;4955142;28;20463;-81
2023/06/22 04:48:33;;;;;;;26.07;24.47;;;21.90;99.90;;;;;;4956177;28;20469;-77
2023/06/22 04:51:03;;;;;;;24.63;23.27;;;21.90;99.90;;;;;;4958411;28;20459;-79
2023/06/22 04:53:32;;;;;;;25.13;23.60;;;21.90;96.50;;;;;;4959147;28;20551;-78
2023/06/22 04:56:00;;;;;;;24.37;23.07;;;21.90;99.90;;;;;;4957554;28;21030;-77
2023/06/22 04:58:28;;;;;;;24.40;22.87;;;21.90;99.90;;;;;;4949490;28;20525;-79
2023/06/22 05:00:57;;;;;;;25.40;23.77;;;22.00;99.90;;;;;;4960478;28;20610;-79
2023/06/22 05:03:26;;;;;;;24.23;22.93;;;22.00;18.30;;;;;;4958560;28;20536;-77
2023/06/22 05:05:56;;;;;;;24.87;23.27;;;22.00;93.70;;;;;;4958249;28;20462;-80
2023/06/22 05:08:28;;;;;;;24.60;23.20;;;22.10;1.00;;;;;;4956894;28;20746;-80
2023/06/22 05:11:22;;;;;;;24.40;23.20;;;22.10;1.00;;;;;;4952956;28;20451;-85
2023/06/22 05:32:28;;;;;;;24.33;22.93;;;22.30;30.00;;;;;;4959039;28;20447;-82
2023/06/22 05:36:01;;;;;;;23.87;22.37;;;22.40;99.90;;;;;;4947107;28;20610;-85
2023/06/22 05:42:31;;;;;;;24.87;23.57;;;22.40;99.90;;;;;;4951458;28;20466;-86
2023/06/22 05:45:07;;;;;;;23.10;21.73;;;22.50;99.90;;;;;;4914801;29;20474;-85
2023/06/22 05:51:18;;;;;;;23.23;22.03;;;22.50;95.60;;;;;;4923747;29;20500;-84
2023/06/22 05:53:49;;;;;;;21.83;20.83;;;22.60;1.00;;;;;;4922973;29;20483;-86
2023/06/22 05:57:17;;;;;;;23.43;22.13;;;22.60;1.00;;;;;;4920790;29;20453;-87
2023/06/22 06:03:56;;;;;;;20.83;19.73;;;22.60;99.90;;;;;;4922331;29;20475;-86
2023/06/22 06:07:27;;;;;;;20.40;19.40;;;22.60;99.90;;;;;;4922292;29;20472;-86
2023/06/22 06:10:21;;;;;;;21.57;20.57;;;22.60;99.90;;;;;;4930014;28;20520;-85
2023/06/22 06:12:56;;;;;;;20.63;19.43;;;22.70;99.90;;;;;;4924862;29;20488;-86
2023/06/22 06:15:54;;;;;;;22.53;20.97;;;22.80;99.90;;;;;;4925784;29;20447;-85
2023/06/22 06:26:38;;;;;;;21.33;20.30;;;22.90;99.90;;;;;;4883375;29;20460;-86
2023/06/22 06:29:25;;;;;;;22.27;20.67;;;22.90;99.90;;;;;;4925005;29;20461;-86
2023/06/22 06:35:41;;;;;;;22.33;21.00;;;23.00;99.90;;;;;;4889428;29;20478;-83
2023/06/22 06:38:23;;;;;;;21.20;20.00;;;23.00;99.90;;;;;;4901239;29;21054;-85
2023/06/22 06:41:21;;;;;;;22.37;21.00;;;23.00;99.90;;;;;;4939055;28;20453;-85
2023/06/22 06:43:53;;;;;;;22.17;20.80;;;23.00;99.90;;;;;;4925497;29;20891;-85
2023/06/22 06:50:10;;;;;;;22.00;20.70;;;23.20;99.90;;;;;;4924997;29;20465;-88
2023/06/22 06:53:11;;;;;;;21.17;19.97;;;23.20;98.00;;;;;;4925160;29;21015;-89
2023/06/22 07:13:16;;;;;;;21.50;20.40;;;23.60;23.10;;;;;;2089760;23;20839;-84
2023/06/22 07:15:46;;;;;;;22.30;20.97;;;23.60;1.00;;;;;;4874441;29;20602;-88
2023/06/22 07:18:14;;;;;;;21.27;20.13;;;23.70;42.60;;;;;;4848952;29;20525;-89
2023/06/22 07:20:43;;;;;;;21.67;20.33;;;23.70;51.50;;;;;;4849518;29;20465;-89
2023/06/22 07:23:11;;;;;;;21.93;20.70;;;23.70;65.40;;;;;;4847371;29;20496;-89
2023/06/22 07:25:40;;;;;;;30.33;21.23;;;23.80;22.50;;;;;;4848994;29;20469;-86
2023/06/22 07:28:09;;;;;;;21.70;20.50;;;23.90;1.00;;;;;;4851188;29;20469;-86
2023/06/22 07:30:38;;;;;;;22.30;20.93;;;24.00;1.00;;;;;;4850722;29;20469;-89
2023/06/22 07:33:08;;;;;;;20.93;19.70;;;24.00;1.00;;;;;;4846439;29;20572;-88
2023/06/22 07:35:37;;;;;;;20.17;19.03;;;24.10;1.00;;;;;;4848253;29;20468;-89
2023/06/22 07:38:05;;;;;;;21.13;19.83;;;24.10;1.00;;;;;;4852361;29;20559;-89
2023/06/22 07:40:35;;;;;;;20.93;19.83;;;24.10;1.00;;;;;;4849459;29;20531;-88
2023/06/22 07:43:03;;;;;;;21.03;20.00;;;24.10;1.00;;;;;;4853783;29;20500;-88
2023/06/22 07:45:34;;;;;;;20.80;19.80;;;24.20;1.00;;;;;;4849698;29;20469;-88
2023/06/22 07:48:03;;;;;;;21.27;20.17;;;24.20;1.00;;;;;;4851659;29;20467;-89
2023/06/22 07:50:33;;;;;;;21.93;20.73;;;24.20;1.00;;;;;;4852944;29;20477;-89
2023/06/22 07:53:01;;;;;;;21.53;20.33;;;24.30;1.00;;;;;;4848257;29;20492;-90
2023/06/22 07:55:30;;;;;;;21.20;19.90;;;24.30;1.00;;;;;;4849579;29;20533;-89
2023/06/22 07:57:58;;;;;;;20.70;19.70;;;24.40;1.00;;;;;;4853402;29;20556;-89
2023/06/22 08:00:27;;;;;;;21.30;20.20;;;24.40;1.00;;;;;;4857744;29;20453;-89
2023/06/22 08:02:56;;;;;;;21.77;20.67;;;24.50;1.00;;;;;;4855234;29;20488;-89
2023/06/22 08:05:24;;;;;;;21.97;20.60;;;24.50;1.00;;;;;;4864573;29;20487;-89
2023/06/22 08:07:55;;;;;;;21.80;20.70;;;24.50;1.00;;;;;;4855654;29;20484;-87
2023/06/22 08:10:24;;;;;;;20.50;19.30;;;24.60;1.00;;;;;;4848132;29;20553;-87
2023/06/22 08:12:52;;;;;;;21.60;20.40;;;24.70;1.00;;;;;;4845079;29;20513;-88
2023/06/22 08:15:21;;;;;;;22.10;20.63;;;24.70;1.00;;;;;;4851237;29;20620;-89
2023/06/22 08:17:52;;;;;;;21.07;19.93;;;24.70;1.00;;;;;;4843591;29;20480;-84
2023/06/22 08:20:20;;;;;;;21.17;19.93;;;24.70;1.00;;;;;;4841931;29;20453;-84
2023/06/22 08:22:48;;;;;;;21.37;20.17;;;24.80;1.00;;;;;;4846236;29;20499;-84
2023/06/22 08:25:18;;;;;;;21.90;20.50;;;24.70;1.00;;;;;;4840013;29;20504;-85
2023/06/22 08:27:48;;;;;;;21.03;20.03;;;24.80;1.00;;;;;;4846923;29;20464;-83
2023/06/22 08:30:18;;;;;;;22.00;20.80;;;24.80;1.00;;;;;;4840721;29;20469;-84
2023/06/22 08:32:46;;;;;;;22.10;21.00;;;24.80;1.00;;;;;;4841456;29;20497;-83
2023/06/22 08:35:14;;;;;;;22.60;21.40;;;24.80;1.00;;;;;;4841248;29;20468;-83
2023/06/22 08:37:42;;;;;;;22.00;20.70;;;24.80;1.00;;;;;;4838467;29;20471;-84
2023/06/22 08:40:12;;;;;;;21.93;20.70;;;24.90;1.00;;;;;;4844513;29;20476;-84
2023/06/22 08:42:42;;;;;;;22.07;20.97;;;25.00;1.00;;;;;;4842693;29;21063;-81
2023/06/22 08:45:12;;;;;;;21.70;20.50;;;25.00;1.00;;;;;;4844109;29;20861;-85
2023/06/22 08:47:40;;;;;;;21.60;20.40;;;25.00;1.00;;;;;;4846056;29;20994;-84
2023/06/22 08:50:10;;;;;;;21.43;20.37;;;25.00;1.00;;;;;;4844539;29;20468;-85
2023/06/22 08:52:41;;;;;;;23.13;21.70;;;25.00;1.00;;;;;;4844064;29;20480;-84
2023/06/22 08:55:10;;;;;;;22.17;20.90;;;25.00;1.00;;;;;;4845080;29;20453;-84
2023/06/22 08:57:39;;;;;;;21.60;20.37;;;25.10;1.00;;;;;;4847123;29;20468;-82
2023/06/22 09:00:16;;;;;;;22.20;20.90;;;25.10;1.00;;;;;;4844657;29;20556;-83
2023/06/22 09:02:44;;;;;;;22.27;21.00;;;25.20;1.00;;;;;;4846220;29;20540;-84
2023/06/22 09:05:13;;;;;;;23.00;21.60;;;25.20;1.00;;;;;;4847294;29;20496;-83
2023/06/22 09:07:41;;;;;;;21.50;20.20;;;25.20;1.00;;;;;;4847435;29;20454;-85
2023/06/22 09:10:10;;;;;;;23.60;21.90;;;25.20;1.00;;;;;;4848718;29;20582;-85
2023/06/22 09:12:38;;;;;;;22.90;21.40;;;25.30;1.00;;;;;;4848816;29;20469;-84
2023/06/22 09:15:09;;;;;;;23.10;21.80;;;25.50;1.00;;;;;;4846716;29;20541;-85
2023/06/22 09:17:55;;;;;;;23.53;21.93;;;25.50;1.00;;;;;;4845184;29;20994;-84
2023/06/22 09:20:23;;;;;;;23.97;22.13;;;25.50;1.00;;;;;;4847002;29;20855;-85
2023/06/22 09:22:52;;;;;;;23.67;22.27;;;25.50;1.00;;;;;;4847925;29;21037;-85
2023/06/22 09:25:20;;;;;;;23.50;22.20;;;25.50;1.00;;;;;;4846450;29;20492;-84
2023/06/22 09:27:49;;;;;;;22.67;21.27;;;25.60;1.00;;;;;;4848090;29;20469;-84
2023/06/22 09:30:18;;;;;;;23.27;21.97;;;25.60;1.00;;;;;;4846751;29;20472;-84
2023/06/22 09:32:46;;;;;;;23.50;21.50;;;25.60;1.00;;;;;;4845606;29;20489;-81
2023/06/22 09:35:15;;;;;;;22.40;21.17;;;25.70;1.00;;;;;;4844333;29;20461;-84
2023/06/22 09:37:43;;;;;;;23.13;21.70;;;25.80;1.00;;;;;;4848454;29;20842;-85
2023/06/22 09:40:12;;;;;;;23.07;21.70;;;25.80;1.00;;;;;;4847000;29;20463;-85
2023/06/22 09:42:42;;;;;;;22.53;21.33;;;25.90;1.00;;;;;;4848564;29;20454;-84
2023/06/22 09:45:11;;;;;;;23.77;22.13;;;25.90;1.00;;;;;;4844825;29;20565;-84
2023/06/22 09:47:41;;;;;;;23.93;22.53;;;26.00;1.00;;;;;;4847174;29;20534;-84
2023/06/22 09:50:10;;;;;;;24.30;22.73;;;26.00;1.00;;;;;;4851001;29;20449;-85
2023/06/22 09:52:38;;;;;;;23.30;21.67;;;26.00;1.00;;;;;;4847994;29;20555;-84
2023/06/22 09:55:09;;;;;;;23.43;22.10;;;26.00;1.00;;;;;;4847731;29;20484;-84
2023/06/22 09:57:37;;;;;;;23.47;21.90;;;26.20;1.00;;;;;;4847171;29;20466;-84
2023/06/22 10:00:11;;;;;;;22.97;21.67;;;26.10;1.00;;;;;;4848488;29;20458;-84
2023/06/22 10:02:41;;;;;;;23.93;22.23;;;26.10;1.00;;;;;;4842528;29;20568;-84
2023/06/22 10:05:10;;;;;;;22.53;20.93;;;26.10;1.00;;;;;;4845456;29;20544;-84
2023/06/22 10:07:42;;;;;;;22.97;21.77;;;26.10;1.00;;;;;;4848109;29;20475;-80
2023/06/22 10:10:11;;;;;;;22.67;21.27;;;26.10;1.00;;;;;;4848739;29;20472;-84
2023/06/22 10:12:43;;;;;;;23.63;22.17;;;26.20;1.00;;;;;;4846836;29;21159;-83
2023/06/22 10:15:12;;;;;;;22.97;21.57;;;26.20;1.00;;;;;;4846364;29;20473;-84
2023/06/22 10:17:42;;;;;;;23.10;21.77;;;26.30;1.00;;;;;;4842739;29;20464;-84
2023/06/22 10:20:14;;;;;;;22.53;21.10;;;26.20;1.00;;;;;;4846071;29;20468;-83
2023/06/22 10:22:43;;;;;;;23.57;22.03;;;26.40;1.00;;;;;;4846421;29;20476;-84
2023/06/22 10:25:12;;;;;;;23.77;22.23;;;26.40;1.00;;;;;;4845404;29;20579;-84
2023/06/22 10:27:40;;;;;;;24.07;22.57;;;26.40;1.00;;;;;;4848302;29;21066;-84
2023/06/22 10:30:12;;;;;;;22.53;21.33;;;26.50;1.00;;;;;;4844897;29;20465;-85
2023/06/22 10:32:43;;;;;;;23.00;21.60;;;26.50;1.00;;;;;;4849062;29;20480;-84
2023/06/22 10:35:13;;;;;;;23.20;21.70;;;26.50;99.90;;;;;;4845376;29;20512;-84
2023/06/22 10:37:43;;;;;;;23.57;22.07;;;26.50;99.90;;;;;;4847009;29;20471;-85
2023/06/22 10:40:12;;;;;;;22.83;21.40;;;26.60;99.90;;;;;;4846067;29;21227;-84
2023/06/22 10:42:41;;;;;;;22.53;21.43;;;26.70;99.90;;;;;;4848242;29;20460;-84
2023/06/22 10:45:13;;;;;;;23.00;21.50;;;26.70;99.90;;;;;;4846909;29;20482;-82
2023/06/22 10:47:43;;;;;;;23.20;21.80;;;26.80;99.90;;;;;;4847092;29;20475;-85
2023/06/22 10:50:11;;;;;;;23.90;22.60;;;26.90;99.90;;;;;;4846784;29;20457;-84
2023/06/22 10:52:40;;;;;;;23.27;21.83;;;26.90;99.90;;;;;;4844768;29;20835;-83
2023/06/22 10:55:09;;;;;;;23.13;21.67;;;27.00;99.90;;;;;;4844141;29;20521;-83
2023/06/22 10:57:38;;;;;;;23.97;22.30;;;26.90;99.90;;;;;;4846772;29;20465;-84
2023/06/22 11:00:11;;;;;;;22.63;21.30;;;27.00;99.90;;;;;;4845382;29;20831;-84
2023/06/22 11:02:39;;;;;;;22.33;20.73;;;27.00;99.90;;;;;;4848986;29;20826;-84
2023/06/22 11:05:09;;;;;;;23.60;21.80;;;26.90;99.90;;;;;;4846876;29;20489;-84
2023/06/22 11:07:38;;;;;;;22.57;21.10;;;26.80;99.90;;;;;;4845921;29;20469;-84
2023/06/22 11:21:54;;;;;;;23.30;21.50;;;26.70;99.90;;;;;;4774637;29;20487;-84
2023/06/22 11:24:41;;;;;;;;;;;;;;;;;;;;;
2023/06/22 11:28:01;;;;;;;23.33;21.63;;;26.70;99.90;;;;;;4735285;30;21018;-81
2023/06/22 11:40:00;;;;;;;22.77;21.20;;;27.00;99.90;;;;;;4762173;30;20468;-81
2023/06/22 11:42:41;;;;;;;23.88;22.17;;;27.00;99.90;;;;;;4791493;29;20453;-84
2023/06/22 11:45:20;;;;;;;23.30;21.70;;;27.00;99.90;;;;;;4836873;29;20211;-82
2023/06/22 11:48:10;;;;;;;24.70;23.03;;;27.00;99.90;;;;;;4846744;29;20483;-84
2023/06/22 11:50:38;;;;;;;22.10;20.90;;;27.00;99.90;;;;;;4842385;29;20472;-84
2023/06/22 11:53:21;;;;;;;;;;;;;;;;;;;;;
2023/06/22 11:55:56;;;;;;;23.70;21.97;;;27.00;99.90;;;;;;4843997;29;20461;-84
2023/06/22 11:58:24;;;;;;;22.53;21.23;;;27.10;99.90;;;;;;4848372;29;20469;-82
2023/06/22 12:04:58;;;;;;;22.17;20.60;;;27.00;99.90;;;;;;4836487;29;20595;-84
2023/06/22 12:07:48;;;;;;;22.23;20.67;;;27.00;99.90;;;;;;4850688;29;20452;-85
2023/06/22 12:11:00;;;;;;;;;;;;;;;;;;;;;
2023/06/22 12:14:01;;;;;;;22.27;20.97;;;27.00;99.90;;;;;;4844558;29;21045;-85
2023/06/22 12:16:30;;;;;;;22.10;20.50;;;26.90;99.90;;;;;;4846711;29;20465;-83
2023/06/22 12:18:58;;;;;;;22.50;21.20;;;27.00;99.90;;;;;;4844981;29;20563;-84
2023/06/22 12:21:27;;;;;;;21.17;19.87;;;26.90;99.90;;;;;;4849019;29;21040;-85
2023/06/22 12:23:55;;;;;;;22.50;20.87;;;26.90;99.90;;;;;;4848557;29;20488;-84
2023/06/22 12:26:23;;;;;;;21.50;20.20;;;27.00;99.90;;;;;;4847849;29;20511;-85
2023/06/22 12:28:51;;;;;;;22.50;20.90;;;26.90;99.90;;;;;;4846703;29;20465;-83
2023/06/22 12:31:21;;;;;;;22.60;20.70;;;26.90;99.90;;;;;;4850202;29;20464;-83
2023/06/22 12:33:49;;;;;;;22.53;20.87;;;26.90;99.90;;;;;;4850298;29;20821;-85
2023/06/22 12:36:17;;;;;;;22.73;20.90;;;26.90;99.90;;;;;;4850787;29;20460;-84
2023/06/22 12:38:45;;;;;;;22.13;20.50;;;26.90;99.90;;;;;;4848136;29;20473;-84
2023/06/22 12:41:14;;;;;;;21.30;20.10;;;26.90;99.90;;;;;;4849382;29;20460;-84
2023/06/22 12:43:42;;;;;;;21.83;20.53;;;26.90;99.90;;;;;;4850228;29;20549;-81
2023/06/22 12:46:10;;;;;;;23.17;21.67;;;26.90;99.90;;;;;;4845797;29;20482;-83
2023/06/22 12:48:42;;;;;;;23.43;21.73;;;26.90;99.90;;;;;;4848167;29;20460;-84
2023/06/22 12:51:10;;;;;;;23.87;22.17;;;26.90;99.90;;;;;;4850505;29;20458;-84
2023/06/22 12:53:38;;;;;;;24.87;23.17;;;26.80;99.90;;;;;;4842283;29;20489;-83
2023/06/22 12:56:06;;;;;;;24.67;23.07;;;26.80;99.90;;;;;;4849119;29;20452;-83
2023/06/22 12:58:35;;;;;;;25.17;23.37;;;26.80;99.90;;;;;;4848584;29;20480;-84
2023/06/22 13:01:03;;;;;;;24.30;22.70;;;26.90;99.90;;;;;;4849427;29;20468;-84
2023/06/22 13:03:31;;;;;;;23.63;22.20;;;26.90;99.90;;;;;;4847191;29;20493;-84
2023/06/22 13:06:02;;;;;;;23.57;21.90;;;26.90;99.90;;;;;;4851012;29;20904;-84
2023/06/22 13:08:30;;;;;;;22.37;21.00;;;26.90;99.90;;;;;;4846421;29;20457;-84
2023/06/22 13:11:18;;;;;;;22.67;20.90;;;26.90;99.90;;;;;;4848968;29;21009;-84
2023/06/22 13:13:47;;;;;;;23.60;22.03;;;26.90;99.90;;;;;;4847727;29;20495;-83
2023/06/22 13:16:15;;;;;;;23.37;21.60;;;27.00;99.90;;;;;;4846285;29;21001;-82
2023/06/22 13:18:43;;;;;;;23.23;21.80;;;27.10;99.90;;;;;;4848968;29;20453;-84
2023/06/22 13:21:14;;;;;;;22.20;20.90;;;27.10;99.90;;;;;;4848679;29;20517;-84
2023/06/22 13:23:42;;;;;;;22.73;21.00;;;27.10;99.90;;;;;;4848363;29;20494;-83
2023/06/22 13:26:10;;;;;;;22.40;20.90;;;27.10;99.90;;;;;;4847476;29;20500;-85
2023/06/22 13:28:38;;;;;;;23.93;22.20;;;27.10;99.90;;;;;;4847076;29;20476;-81
2023/06/22 13:31:09;;;;;;;23.40;21.70;;;27.10;99.90;;;;;;4845275;29;20465;-85
2023/06/22 13:33:38;;;;;;;21.97;20.70;;;27.20;99.90;;;;;;4843124;29;20550;-82
2023/06/22 13:36:07;;;;;;;21.87;20.57;;;27.20;99.90;;;;;;4843344;29;20884;-84
2023/06/22 13:38:38;;;;;;;23.00;21.43;;;27.10;99.90;;;;;;4840979;29;20462;-83
2023/06/22 13:41:10;;;;;;;22.30;20.80;;;27.10;99.90;;;;;;4848329;29;20563;-84
2023/06/22 13:43:45;;;;;;;22.97;21.60;;;27.10;99.90;;;;;;4847330;29;20548;-84
2023/06/22 13:46:20;;;;;;;23.67;21.83;;;27.20;99.90;;;;;;4847747;29;20491;-84
2023/06/22 13:48:49;;;;;;;22.63;20.97;;;27.10;99.90;;;;;;4848787;29;20472;-82
2023/06/22 13:51:17;;;;;;;21.77;20.43;;;27.10;99.90;;;;;;4846459;29;20525;-84
2023/06/22 13:53:54;;;;;;;23.00;21.37;;;27.20;99.90;;;;;;4846013;29;20488;-84
2023/06/22 13:56:31;;;;;;;23.83;22.30;;;27.20;99.90;;;;;;4847937;29;21074;-84
2023/06/22 13:59:09;;;;;;;21.23;19.83;;;27.20;99.90;;;;;;4844802;29;20521;-83
2023/06/22 14:01:38;;;;;;;23.37;21.87;;;27.30;99.90;;;;;;4847974;29;20482;-84
2023/06/22 14:04:35;;;;;;;22.47;21.23;;;27.30;99.90;;;;;;4848713;29;20580;-84
2023/06/22 14:07:08;;;;;;;22.90;21.60;;;27.40;99.90;;;;;;4847290;29;20908;-84
2023/06/22 14:09:58;;;;;;;22.67;21.17;;;27.50;99.90;;;;;;4845467;29;20473;-83
2023/06/22 14:12:31;;;;;;;23.27;21.37;;;27.70;99.90;;;;;;4847252;29;20456;-83
2023/06/22 14:15:00;;;;;;;21.63;20.33;;;27.70;99.90;;;;;;4847300;29;20461;-84
2023/06/22 14:17:29;;;;;;;21.60;20.30;;;27.70;99.90;;;;;;4848072;29;20449;-84
2023/06/22 14:19:57;;;;;;;20.93;19.47;;;27.80;99.90;;;;;;4847712;29;20473;-84
2023/06/22 14:22:35;;;;;;;20.43;19.23;;;27.80;99.90;;;;;;4843953;29;20465;-83
2023/06/22 14:25:06;;;;;;;19.93;18.70;;;27.80;99.90;;;;;;4846773;29;20456;-83
2023/06/22 14:27:34;;;;;;;20.67;19.30;;;27.90;99.90;;;;;;4843862;29;21075;-84